MMTG/TGZ METAR and TAF weather

Enter ICAO airport designator
Station Type Date Time Source
MMTG METAR 2019/06/26 18:40 UTC NOAA

MMTG 261840Z 14002KT 10SM SCT030TCU SCT300 32/18 A2994 RMK 8/202


Station Type Date Time Source
MMTG Decoded METAR 2019/06/26 18:40 UTC NOAA

Tuxtla Gutierrez, Chis., Mexico (MMTG) 16-45N 093-07W
Jun 26, 2019 - 02:40 PM EDT / 2019.06.26 1840 UTC
Wind: from the SE (140 degrees) at 2 MPH (2 KT):0
Visibility: 10 mile(s):0
Sky conditions: partly cloudy
Weather: Towering cumulus clouds observed
Temperature: 89 F (32 C)
Dew Point: 64 F (18 C)
Relative Humidity: 43%
Pressure (altimeter): 29.94 in. Hg (1013 hPa)
ob: MMTG 261840Z 14002KT 10SM SCT030TCU SCT300 32/18 A2994 RMK 8/202
cycle: 18

Station Type Date Time Source
MMTG TAF 2019/06/26 18:33 UTC NOAA

TAF MMTG 261630Z 2618/2718 32005KT P6SM SCT025 SCT300
FM262100 32015KT P6SM BKN025CB BKN090
TEMPO 2623/2703 4SM TSRA
FM270400 34005KT P6SM SCT020 BKN080
FM271000 00000KT 5SM HZ SCT015 SCT080
TEMPO 2711/2715 3SM BR HZ BKN015

Example: see airport list